sensor_id;sensor_type;location;lat;lon;timestamp;pressure;altitude;pressure_sealevel;temperature;humidity
42859;BME280;28505;56.970;40.998;2023-02-28T00:04:17;99905.34;;;-9.72;100.00
42859;BME280;28505;56.970;40.998;2023-02-28T00:09:40;99883.69;;;-9.72;100.00
42859;BME280;28505;56.970;40.998;2023-02-28T00:15:05;99887.56;;;-9.44;100.00
42859;BME280;28505;56.970;40.998;2023-02-28T00:20:27;99902.22;;;-9.26;100.00
42859;BME280;28505;56.970;40.998;2023-02-28T00:25:50;99885.22;;;-9.22;100.00
42859;BME280;28505;56.970;40.998;2023-02-28T00:31:12;99856.06;;;-9.34;100.00
42859;BME280;28505;56.970;40.998;2023-02-28T00:36:36;99857.84;;;-9.26;100.00
42859;BME280;28505;56.970;40.998;2023-02-28T00:41:58;99838.94;;;-9.36;100.00
42859;BME280;28505;56.970;40.998;2023-02-28T00:47:20;99834.47;;;-9.20;100.00
42859;BME280;28505;56.970;40.998;2023-02-28T00:52:43;99823.75;;;-9.25;100.00
42859;BME280;28505;56.970;40.998;2023-02-28T00:58:07;99799.94;;;-9.30;100.00
42859;BME280;28505;56.970;40.998;2023-02-28T01:03:30;99825.81;;;-9.12;100.00
42859;BME280;28505;56.970;40.998;2023-02-28T01:08:52;99775.44;;;-9.29;100.00
42859;BME280;28505;56.970;40.998;2023-02-28T01:14:17;99757.81;;;-9.27;100.00
42859;BME280;28505;56.970;40.998;2023-02-28T01:19:40;99776.16;;;-9.04;100.00
42859;BME280;28505;56.970;40.998;2023-02-28T01:25:03;99762.34;;;-8.89;100.00
42859;BME280;28505;56.970;40.998;2023-02-28T01:30:25;99741.34;;;-8.73;100.00
42859;BME280;28505;56.970;40.998;2023-02-28T01:35:48;99742.34;;;-8.51;100.00
42859;BME280;28505;56.970;40.998;2023-02-28T01:41:18;99730.06;;;-8.42;100.00
42859;BME280;28505;56.970;40.998;2023-02-28T01:46:41;99703.34;;;-8.53;100.00
42859;BME280;28505;56.970;40.998;2023-02-28T01:52:08;99713.09;;;-8.46;100.00
42859;BME280;28505;56.970;40.998;2023-02-28T01:57:38;99719.94;;;-8.31;100.00
42859;BME280;28505;56.970;40.998;2023-02-28T02:03:06;99699.94;;;-8.38;100.00
42859;BME280;28505;56.970;40.998;2023-02-28T02:08:32;99680.91;;;-8.47;100.00
42859;BME280;28505;56.970;40.998;2023-02-28T02:14:30;99666.75;;;-8.38;100.00
42859;BME280;28505;56.970;40.998;2023-02-28T02:20:26;99637.63;;;-8.35;100.00
42859;BME280;28505;56.970;40.998;2023-02-28T02:31:54;99618.44;;;-8.27;100.00
42859;BME280;28505;56.970;40.998;2023-02-28T02:48:30;99576.44;;;-8.40;100.00
42859;BME280;28505;56.970;40.998;2023-02-28T02:54:00;99563.75;;;-8.43;100.00
42859;BME280;28505;56.970;40.998;2023-02-28T02:59:24;99549.03;;;-8.44;100.00
42859;BME280;28505;56.970;40.998;2023-02-28T03:04:53;99576.63;;;-8.27;100.00
42859;BME280;28505;56.970;40.998;2023-02-28T03:10:33;99562.44;;;-8.33;100.00
42859;BME280;28505;56.970;40.998;2023-02-28T03:33:38;99468.72;;;-8.51;100.00
42859;BME280;28505;56.970;40.998;2023-02-28T03:39:04;99478.06;;;-8.27;100.00
42859;BME280;28505;56.970;40.998;2023-02-28T03:50:27;99424.41;;;-8.37;100.00
42859;BME280;28505;56.970;40.998;2023-02-28T03:56:07;99419.81;;;-8.35;100.00
42859;BME280;28505;56.970;40.998;2023-02-28T04:01:42;99377.75;;;-8.40;100.00
42859;BME280;28505;56.970;40.998;2023-02-28T04:07:07;99347.50;;;-8.28;100.00
42859;BME280;28505;56.970;40.998;2023-02-28T04:12:31;99345.22;;;-8.16;100.00
42859;BME280;28505;56.970;40.998;2023-02-28T04:17:53;99308.97;;;-8.19;100.00
42859;BME280;28505;56.970;40.998;2023-02-28T04:23:15;99307.69;;;-8.02;100.00
42859;BME280;28505;56.970;40.998;2023-02-28T04:28:38;99304.59;;;-7.91;100.00
42859;BME280;28505;56.970;40.998;2023-02-28T04:34:00;99316.38;;;-7.73;100.00
42859;BME280;28505;56.970;40.998;2023-02-28T04:39:24;99268.00;;;-7.84;100.00
42859;BME280;28505;56.970;40.998;2023-02-28T04:50:59;99249.91;;;-7.79;100.00
42859;BME280;28505;56.970;40.998;2023-02-28T04:56:22;99246.69;;;-7.46;100.00
42859;BME280;28505;56.970;40.998;2023-02-28T05:01:47;99243.53;;;-7.35;100.00
42859;BME280;28505;56.970;40.998;2023-02-28T05:07:09;99215.94;;;-7.31;100.00
42859;BME280;28505;56.970;40.998;2023-02-28T05:12:31;99224.06;;;-7.13;100.00
42859;BME280;28505;56.970;40.998;2023-02-28T05:17:53;99263.84;;;-6.96;100.00
42859;BME280;28505;56.970;40.998;2023-02-28T05:23:17;99238.63;;;-6.90;100.00
42859;BME280;28505;56.970;40.998;2023-02-28T05:28:46;99230.00;;;-6.71;100.00
42859;BME280;28505;56.970;40.998;2023-02-28T05:41:52;99194.34;;;-6.58;100.00
42859;BME280;28505;56.970;40.998;2023-02-28T05:47:14;99194.97;;;-6.43;100.00
42859;BME280;28505;56.970;40.998;2023-02-28T05:52:42;99184.25;;;-6.35;100.00
42859;BME280;28505;56.970;40.998;2023-02-28T05:58:31;99138.06;;;-6.36;100.00
42859;BME280;28505;56.970;40.998;2023-02-28T06:03:56;99161.88;;;-6.31;100.00
42859;BME280;28505;56.970;40.998;2023-02-28T06:09:45;99213.91;;;-6.01;100.00
42859;BME280;28505;56.970;40.998;2023-02-28T06:15:14;99184.63;;;-6.12;100.00
42859;BME280;28505;56.970;40.998;2023-02-28T06:21:00;99172.91;;;-6.02;100.00
42859;BME280;28505;56.970;40.998;2023-02-28T06:26:27;99163.59;;;-5.85;100.00
42859;BME280;28505;56.970;40.998;2023-02-28T06:32:53;99151.66;;;-5.81;100.00
42859;BME280;28505;56.970;40.998;2023-02-28T06:38:32;99130.47;;;-5.86;100.00
42859;BME280;28505;56.970;40.998;2023-02-28T06:44:18;99141.47;;;-5.57;100.00
42859;BME280;28505;56.970;40.998;2023-02-28T06:50:11;99161.06;;;-5.60;100.00
42859;BME280;28505;56.970;40.998;2023-02-28T06:55:33;99123.16;;;-5.77;100.00
42859;BME280;28505;56.970;40.998;2023-02-28T07:00:55;99127.59;;;-5.71;100.00
42859;BME280;28505;56.970;40.998;2023-02-28T07:06:22;99140.03;;;-5.53;100.00
42859;BME280;28505;56.970;40.998;2023-02-28T07:11:44;99106.16;;;-5.61;100.00
42859;BME280;28505;56.970;40.998;2023-02-28T07:17:10;99108.03;;;-5.37;100.00
42859;BME280;28505;56.970;40.998;2023-02-28T07:22:34;99086.59;;;-5.34;100.00
42859;BME280;28505;56.970;40.998;2023-02-28T07:27:56;99043.91;;;-5.54;100.00
42859;BME280;28505;56.970;40.998;2023-02-28T07:33:18;99078.28;;;-5.31;100.00
42859;BME280;28505;56.970;40.998;2023-02-28T07:38:43;99061.81;;;-5.13;100.00
42859;BME280;28505;56.970;40.998;2023-02-28T07:44:12;99053.13;;;-5.13;100.00
42859;BME280;28505;56.970;40.998;2023-02-28T07:49:36;99063.16;;;-5.04;100.00
42859;BME280;28505;56.970;40.998;2023-02-28T07:54:58;99052.38;;;-4.96;100.00
42859;BME280;28505;56.970;40.998;2023-02-28T08:00:20;99052.75;;;-4.67;100.00
42859;BME280;28505;56.970;40.998;2023-02-28T08:05:42;99016.75;;;-4.66;100.00
42859;BME280;28505;56.970;40.998;2023-02-28T08:11:07;98992.34;;;-4.55;100.00
42859;BME280;28505;56.970;40.998;2023-02-28T08:16:33;98978.75;;;-4.52;100.00
42859;BME280;28505;56.970;40.998;2023-02-28T08:21:59;98990.75;;;-4.38;100.00
42859;BME280;28505;56.970;40.998;2023-02-28T08:27:23;99011.28;;;-4.28;100.00
42859;BME280;28505;56.970;40.998;2023-02-28T08:32:45;98996.03;;;-4.38;100.00
42859;BME280;28505;56.970;40.998;2023-02-28T08:38:08;98991.84;;;-4.45;100.00
42859;BME280;28505;56.970;40.998;2023-02-28T08:43:30;98964.44;;;-4.56;100.00
42859;BME280;28505;56.970;40.998;2023-02-28T08:48:54;98991.91;;;-4.34;100.00
42859;BME280;28505;56.970;40.998;2023-02-28T08:54:16;98961.66;;;-4.43;100.00
42859;BME280;28505;56.970;40.998;2023-02-28T08:59:41;98958.34;;;-4.38;100.00
42859;BME280;28505;56.970;40.998;2023-02-28T09:05:03;98970.13;;;-4.22;100.00
42859;BME280;28505;56.970;40.998;2023-02-28T09:10:26;98964.84;;;-4.04;100.00
42859;BME280;28505;56.970;40.998;2023-02-28T09:16:15;98974.03;;;-3.95;100.00
42859;BME280;28505;56.970;40.998;2023-02-28T09:23:46;98917.28;;;-4.21;100.00
42859;BME280;28505;56.970;40.998;2023-02-28T09:29:58;98895.44;;;-4.21;100.00
42859;BME280;28505;56.970;40.998;2023-02-28T09:42:11;98960.81;;;-3.77;100.00
42859;BME280;28505;56.970;40.998;2023-02-28T09:54:48;98892.81;;;-4.10;100.00
42859;BME280;28505;56.970;40.998;2023-02-28T10:00:33;98867.31;;;-4.09;100.00
42859;BME280;28505;56.970;40.998;2023-02-28T10:06:05;98904.59;;;-3.82;100.00
42859;BME280;28505;56.970;40.998;2023-02-28T10:11:32;98909.03;;;-3.83;100.00
42859;BME280;28505;56.970;40.998;2023-02-28T10:17:08;98898.97;;;-3.86;100.00
42859;BME280;28505;56.970;40.998;2023-02-28T10:28:15;98891.53;;;-3.89;100.00
42859;BME280;28505;56.970;40.998;2023-02-28T10:33:38;98893.88;;;-3.69;100.00
42859;BME280;28505;56.970;40.998;2023-02-28T10:39:55;98898.44;;;-3.64;100.00
42859;BME280;28505;56.970;40.998;2023-02-28T10:45:18;98893.16;;;-3.64;100.00
42859;BME280;28505;56.970;40.998;2023-02-28T11:01:43;98840.50;;;-3.64;100.00
42859;BME280;28505;56.970;40.998;2023-02-28T11:07:22;98800.06;;;-3.82;100.00
42859;BME280;28505;56.970;40.998;2023-02-28T11:13:52;98794.00;;;-3.82;100.00
42859;BME280;28505;56.970;40.998;2023-02-28T11:19:58;98777.38;;;-3.83;100.00
42859;BME280;28505;56.970;40.998;2023-02-28T11:26:04;98775.31;;;-3.81;100.00
42859;BME280;28505;56.970;40.998;2023-02-28T11:32:36;98772.38;;;-3.72;100.00
42859;BME280;28505;56.970;40.998;2023-02-28T11:38:01;98797.06;;;-3.50;100.00
42859;BME280;28505;56.970;40.998;2023-02-28T11:56:55;98791.34;;;-3.35;100.00
42859;BME280;28505;56.970;40.998;2023-02-28T12:08:53;98770.63;;;-3.43;100.00
42859;BME280;28505;56.970;40.998;2023-02-28T12:14:49;98778.03;;;-3.28;100.00
42859;BME280;28505;56.970;40.998;2023-02-28T12:31:41;98765.78;;;-3.35;100.00
42859;BME280;28505;56.970;40.998;2023-02-28T12:37:16;98729.53;;;-3.56;100.00
42859;BME280;28505;56.970;40.998;2023-02-28T12:43:07;98773.91;;;-3.24;100.00
42859;BME280;28505;56.970;40.998;2023-02-28T12:48:42;98744.50;;;-3.33;100.00
42859;BME280;28505;56.970;40.998;2023-02-28T12:54:28;98727.31;;;-3.36;100.00
42859;BME280;28505;56.970;40.998;2023-02-28T12:59:59;98751.22;;;-3.14;100.00
42859;BME280;28505;56.970;40.998;2023-02-28T13:05:54;98747.53;;;-3.13;100.00
42859;BME280;28505;56.970;40.998;2023-02-28T13:22:41;98734.34;;;-3.13;100.00
42859;BME280;28505;56.970;40.998;2023-02-28T13:28:11;98727.84;;;-3.22;100.00
42859;BME280;28505;56.970;40.998;2023-02-28T13:45:28;98718.41;;;-3.06;100.00
42859;BME280;28505;56.970;40.998;2023-02-28T13:50:51;98712.31;;;-3.07;100.00
42859;BME280;28505;56.970;40.998;2023-02-28T13:56:34;98681.44;;;-3.23;100.00
42859;BME280;28505;56.970;40.998;2023-02-28T14:02:17;98708.75;;;-3.00;100.00
42859;BME280;28505;56.970;40.998;2023-02-28T14:07:50;98709.78;;;-3.01;100.00
42859;BME280;28505;56.970;40.998;2023-02-28T14:13:37;98706.91;;;-3.00;100.00
42859;BME280;28505;56.970;40.998;2023-02-28T14:19:24;98715.38;;;-2.98;100.00
42859;BME280;28505;56.970;40.998;2023-02-28T14:25:08;98705.88;;;-2.99;100.00
42859;BME280;28505;56.970;40.998;2023-02-28T14:36:10;98709.09;;;-2.97;100.00
42859;BME280;28505;56.970;40.998;2023-02-28T14:41:36;98701.97;;;-2.96;100.00
42859;BME280;28505;56.970;40.998;2023-02-28T14:47:02;98640.44;;;-3.31;100.00
42859;BME280;28505;56.970;40.998;2023-02-28T14:52:30;98687.22;;;-3.09;100.00
42859;BME280;28505;56.970;40.998;2023-02-28T14:57:59;98653.47;;;-3.24;100.00
42859;BME280;28505;56.970;40.998;2023-02-28T15:03:24;98685.91;;;-2.95;100.00
42859;BME280;28505;56.970;40.998;2023-02-28T15:08:46;98693.81;;;-2.95;100.00
42859;BME280;28505;56.970;40.998;2023-02-28T15:14:18;98688.47;;;-3.00;100.00
42859;BME280;28505;56.970;40.998;2023-02-28T15:19:42;98705.41;;;-2.96;100.00
42859;BME280;28505;56.970;40.998;2023-02-28T15:25:10;98691.56;;;-3.03;100.00
42859;BME280;28505;56.970;40.998;2023-02-28T15:30:35;98697.16;;;-2.99;100.00
42859;BME280;28505;56.970;40.998;2023-02-28T15:36:12;98709.63;;;-2.95;100.00
42859;BME280;28505;56.970;40.998;2023-02-28T15:41:37;98715.72;;;-2.94;100.00
42859;BME280;28505;56.970;40.998;2023-02-28T15:47:14;98711.25;;;-2.94;100.00
42859;BME280;28505;56.970;40.998;2023-02-28T15:52:44;98707.47;;;-2.98;100.00
42859;BME280;28505;56.970;40.998;2023-02-28T16:04:31;98693.16;;;-3.02;100.00
42859;BME280;28505;56.970;40.998;2023-02-28T16:09:54;98693.63;;;-3.05;100.00
42859;BME280;28505;56.970;40.998;2023-02-28T16:15:23;98704.13;;;-2.93;100.00
42859;BME280;28505;56.970;40.998;2023-02-28T16:20:47;98695.78;;;-3.02;100.00
42859;BME280;28505;56.970;40.998;2023-02-28T16:26:21;98700.91;;;-2.95;100.00
42859;BME280;28505;56.970;40.998;2023-02-28T16:31:44;98696.91;;;-2.98;100.00
42859;BME280;28505;56.970;40.998;2023-02-28T16:37:14;98702.03;;;-2.91;100.00
42859;BME280;28505;56.970;40.998;2023-02-28T16:42:37;98699.56;;;-2.98;100.00
42859;BME280;28505;56.970;40.998;2023-02-28T16:48:00;98708.75;;;-3.00;100.00
42859;BME280;28505;56.970;40.998;2023-02-28T16:53:22;98724.50;;;-2.89;100.00
42859;BME280;28505;56.970;40.998;2023-02-28T16:58:50;98711.09;;;-3.16;100.00
42859;BME280;28505;56.970;40.998;2023-02-28T17:04:37;98733.56;;;-3.25;100.00
42859;BME280;28505;56.970;40.998;2023-02-28T17:10:00;98717.16;;;-3.56;100.00
42859;BME280;28505;56.970;40.998;2023-02-28T17:15:30;98721.38;;;-3.66;100.00
42859;BME280;28505;56.970;40.998;2023-02-28T17:20:52;98726.22;;;-3.87;100.00
42859;BME280;28505;56.970;40.998;2023-02-28T17:26:16;98739.16;;;-3.97;100.00
42859;BME280;28505;56.970;40.998;2023-02-28T17:31:41;98742.44;;;-4.13;100.00
42859;BME280;28505;56.970;40.998;2023-02-28T17:37:03;98729.03;;;-4.35;100.00
42859;BME280;28505;56.970;40.998;2023-02-28T17:42:25;98742.72;;;-4.45;100.00
42859;BME280;28505;56.970;40.998;2023-02-28T17:47:49;98751.09;;;-4.36;100.00
42859;BME280;28505;56.970;40.998;2023-02-28T17:53:14;98732.09;;;-4.38;100.00
42859;BME280;28505;56.970;40.998;2023-02-28T17:58:36;98742.91;;;-4.28;100.00
42859;BME280;28505;56.970;40.998;2023-02-28T18:03:58;98744.16;;;-4.19;100.00
42859;BME280;28505;56.970;40.998;2023-02-28T18:09:22;98745.09;;;-4.13;100.00
42859;BME280;28505;56.970;40.998;2023-02-28T18:14:46;98727.31;;;-4.30;100.00
42859;BME280;28505;56.970;40.998;2023-02-28T18:20:10;98743.69;;;-4.28;100.00
42859;BME280;28505;56.970;40.998;2023-02-28T18:25:33;98729.47;;;-4.38;100.00
42859;BME280;28505;56.970;40.998;2023-02-28T18:30:55;98761.31;;;-4.16;100.00
42859;BME280;28505;56.970;40.998;2023-02-28T18:36:19;98732.84;;;-4.31;100.00
42859;BME280;28505;56.970;40.998;2023-02-28T18:41:42;98741.63;;;-4.26;100.00
42859;BME280;28505;56.970;40.998;2023-02-28T18:47:04;98737.53;;;-4.21;100.00
42859;BME280;28505;56.970;40.998;2023-02-28T18:52:27;98753.13;;;-4.08;100.00
42859;BME280;28505;56.970;40.998;2023-02-28T18:57:49;98748.84;;;-4.09;100.00
42859;BME280;28505;56.970;40.998;2023-02-28T19:09:45;98769.16;;;-3.98;100.00
42859;BME280;28505;56.970;40.998;2023-02-28T19:24:22;98775.31;;;-4.04;100.00
42859;BME280;28505;56.970;40.998;2023-02-28T19:39:35;98720.44;;;-4.42;100.00
42859;BME280;28505;56.970;40.998;2023-02-28T19:45:03;98731.44;;;-4.34;100.00
42859;BME280;28505;56.970;40.998;2023-02-28T19:50:42;98746.00;;;-4.19;100.00
42859;BME280;28505;56.970;40.998;2023-02-28T19:56:04;98739.25;;;-4.27;100.00
42859;BME280;28505;56.970;40.998;2023-02-28T20:01:28;98752.50;;;-4.22;100.00
42859;BME280;28505;56.970;40.998;2023-02-28T20:06:52;98720.88;;;-4.45;100.00
42859;BME280;28505;56.970;40.998;2023-02-28T20:12:15;98742.41;;;-4.37;100.00
42859;BME280;28505;56.970;40.998;2023-02-28T20:17:45;98718.22;;;-4.69;100.00
42859;BME280;28505;56.970;40.998;2023-02-28T20:23:08;98726.44;;;-4.65;100.00
42859;BME280;28505;56.970;40.998;2023-02-28T20:28:30;98702.38;;;-4.81;100.00
42859;BME280;28505;56.970;40.998;2023-02-28T20:33:52;98721.81;;;-4.82;100.00
42859;BME280;28505;56.970;40.998;2023-02-28T20:39:14;98716.44;;;-4.87;100.00
42859;BME280;28505;56.970;40.998;2023-02-28T20:44:37;98704.72;;;-5.03;100.00
42859;BME280;28505;56.970;40.998;2023-02-28T20:49:59;98701.97;;;-5.08;100.00
42859;BME280;28505;56.970;40.998;2023-02-28T20:55:22;98689.66;;;-5.26;100.00
42859;BME280;28505;56.970;40.998;2023-02-28T21:00:45;98686.63;;;-5.41;100.00
42859;BME280;28505;56.970;40.998;2023-02-28T21:06:08;98695.69;;;-5.55;100.00
42859;BME280;28505;56.970;40.998;2023-02-28T21:11:32;98689.75;;;-5.69;100.00
42859;BME280;28505;56.970;40.998;2023-02-28T21:16:55;98686.34;;;-5.88;100.00
42859;BME280;28505;56.970;40.998;2023-02-28T21:22:17;98690.84;;;-5.95;100.00
42859;BME280;28505;56.970;40.998;2023-02-28T21:27:40;98705.66;;;-6.01;100.00
42859;BME280;28505;56.970;40.998;2023-02-28T21:33:03;98697.31;;;-6.16;100.00
42859;BME280;28505;56.970;40.998;2023-02-28T21:38:24;98703.59;;;-6.17;100.00
42859;BME280;28505;56.970;40.998;2023-02-28T21:43:48;98719.59;;;-6.00;100.00
42859;BME280;28505;56.970;40.998;2023-02-28T21:49:11;98723.09;;;-5.88;100.00
42859;BME280;28505;56.970;40.998;2023-02-28T21:54:35;98719.44;;;-5.87;100.00
42859;BME280;28505;56.970;40.998;2023-02-28T21:59:57;98702.09;;;-5.88;100.00
42859;BME280;28505;56.970;40.998;2023-02-28T22:05:20;98741.69;;;-5.53;100.00
42859;BME280;28505;56.970;40.998;2023-02-28T22:10:42;98732.72;;;-5.45;100.00
42859;BME280;28505;56.970;40.998;2023-02-28T22:16:08;98728.34;;;-5.33;100.00
42859;BME280;28505;56.970;40.998;2023-02-28T22:21:31;98710.84;;;-5.39;100.00
42859;BME280;28505;56.970;40.998;2023-02-28T22:26:54;98709.97;;;-5.33;100.00
42859;BME280;28505;56.970;40.998;2023-02-28T22:32:17;98729.19;;;-5.21;100.00
42859;BME280;28505;56.970;40.998;2023-02-28T22:37:39;98709.13;;;-5.33;100.00
42859;BME280;28505;56.970;40.998;2023-02-28T22:43:02;98739.63;;;-5.14;100.00
42859;BME280;28505;56.970;40.998;2023-02-28T22:48:24;98727.97;;;-5.18;100.00
42859;BME280;28505;56.970;40.998;2023-02-28T22:53:48;98710.97;;;-5.34;100.00
42859;BME280;28505;56.970;40.998;2023-02-28T22:59:12;98713.75;;;-5.29;100.00
42859;BME280;28505;56.970;40.998;2023-02-28T23:04:36;98707.34;;;-5.33;100.00
42859;BME280;28505;56.970;40.998;2023-02-28T23:09:59;98726.44;;;-5.26;100.00
42859;BME280;28505;56.970;40.998;2023-02-28T23:15:25;98718.72;;;-5.39;100.00
42859;BME280;28505;56.970;40.998;2023-02-28T23:20:50;98733.59;;;-5.33;100.00
42859;BME280;28505;56.970;40.998;2023-02-28T23:26:13;98709.66;;;-5.43;100.00
42859;BME280;28505;56.970;40.998;2023-02-28T23:31:36;98718.06;;;-5.34;100.00
42859;BME280;28505;56.970;40.998;2023-02-28T23:37:00;98722.59;;;-5.42;100.00
42859;BME280;28505;56.970;40.998;2023-02-28T23:42:22;98697.63;;;-5.69;100.00
42859;BME280;28505;56.970;40.998;2023-02-28T23:47:45;98707.50;;;-5.65;100.00
42859;BME280;28505;56.970;40.998;2023-02-28T23:53:07;98699.44;;;-5.70;100.00
42859;BME280;28505;56.970;40.998;2023-02-28T23:58:30;98691.38;;;-5.68;100.00
